Wednesday, October 18, 2017, 3:37 AM EDT
Back to Local

KJST, Johnstown-cambria Co Airport

Location: Johnstown, PA, United States Lat: 40.317
Local Time: 3:37 AM EDT ( 7:37 GMT) Lon: -78.833
Time Zone: US/Eastern Elev: 2283 ft

Show me the last for .
Show Decoded

2017-10-18 02:54 METAR KJST 180654Z AUTO 23006KT 10SM CLR 06/02 A3030 RMK AO2 SLP268 T00610022 =
2017-10-18 01:54 METAR KJST 180554Z AUTO 23007KT 10SM CLR 07/02 A3030 RMK AO2 SLP268 T00720022
                 10100 20067 51003 =
2017-10-18 00:54 METAR KJST 180454Z AUTO 23007KT 10SM CLR 07/02 A3031 RMK AO2 SLP269 T00720022
                 401390006 =
2017-10-17 23:54 METAR KJST 180354Z AUTO 23007KT 10SM CLR 07/02 A3030 RMK AO2 SLP271 T00720022 =
2017-10-17 22:54 METAR KJST 180254Z AUTO 23006KT 10SM CLR 08/02 A3030 RMK AO2 SLP268 T00780022
                 53009 =
2017-10-17 21:54 METAR KJST 180154Z AUTO 24006KT 10SM CLR 08/02 A3028 RMK AO2 SLP266 T00830022 =
2017-10-17 20:54 METAR KJST 180054Z AUTO 25007KT 10SM CLR 09/03 A3027 RMK AO2 SLP263 T00940028 =
2017-10-17 19:54 METAR KJST 172354Z AUTO 24006KT 10SM CLR 09/02 A3027 RMK AO2 SLP263 T00940022
                 10139 20089 53003 =
2017-10-17 18:54 METAR KJST 172254Z AUTO 25005KT 10SM CLR 11/02 A3026 RMK AO2 SLP260 T01060022 =
2017-10-17 17:54 METAR KJST 172154Z AUTO 27007KT 10SM CLR 12/02 A3025 RMK AO2 SLP257 T01220022 =
2017-10-17 16:54 METAR KJST 172054Z AUTO 25005KT 10SM CLR 13/03 A3026 RMK AO2 SLP256 T01330028
                 56010 =
2017-10-17 15:54 METAR KJST 171954Z AUTO 26007KT 10SM CLR 13/02 A3027 RMK AO2 SLP260 T01330017 =
2017-10-17 14:54 METAR KJST 171854Z AUTO 10SM CLR 13/02 A3027 RMK AO2 SLP261 T01280017 =
2017-10-17 13:54 METAR KJST 171754Z AUTO 23008KT 10SM CLR 12/01 A3029 RMK AO2 SLP266 T01220011
                 10122 20017 58015 =
2017-10-17 12:54 METAR KJST 171654Z AUTO 28007KT 10SM CLR 11/02 A3032 RMK AO2 SLP278 T01110017 =
2017-10-17 11:54 METAR KJST 171554Z AUTO VRB06KT 10SM CLR 10/01 A3034 RMK AO2 SLP286 T01000006 =
2017-10-17 10:54 METAR KJST 171454Z AUTO 22004KT 10SM CLR 08/00 A3034 RMK AO2 SLP285 T00830000
                 50006 =
2017-10-17 09:54 METAR KJST 171354Z AUTO 23005KT 10SM CLR 06/02 A3034 RMK AO2 SLP289 T00610017 =
2017-10-17 08:54 METAR KJST 171254Z AUTO 21004KT 10SM CLR 04/01 A3034 RMK AO2 SLP288 T00440011 =
2017-10-17 07:54 METAR KJST 171154Z AUTO 22004KT 10SM CLR 02/M01 A3032 RMK AO2 SLP283 T00171006
                 10039 20006 51010 =
2017-10-17 06:54 METAR KJST 171054Z AUTO 25005KT 10SM CLR 01/M01 A3031 RMK AO2 SLP280 T00111011 =
2017-10-17 05:54 METAR KJST 170954Z AUTO 24004KT 10SM CLR 01/M01 A3030 RMK AO2 SLP274 T00111011 =
2017-10-17 04:54 METAR KJST 170854Z AUTO 26005KT 10SM CLR 03/M01 A3029 RMK AO2 SLP268 T00281011
                 53009 =
2017-10-17 03:54 METAR KJST 170754Z AUTO 24003KT 10SM CLR 03/M01 A3027 RMK AO2 SLP263 T00281006 =

Support USWX by starting your Amazon purchase here.